Time;durP1;ratioP1;P1;durP2;ratioP2;P2;SDS_P1;SDS_P2;PMS_P1;PMS_P2;Temp;Humidity;BMP_temperature;BMP_pressure;BME280_temperature;BME280_humidity;BME280_pressure;Samples;Min_cycle;Max_cycle;Signal;HPM_P1;HPM_P2
2022/07/27 00:01:18;;;;;;;3.22;1.00;;;19.20;90.40;;;;;;5039224;28;20200;-24
2022/07/27 00:03:50;;;;;;;3.08;1.02;;;19.20;90.40;;;;;;5023054;28;20232;-24
2022/07/27 00:06:18;;;;;;;3.40;1.27;;;19.20;90.40;;;;;;5028884;28;20311;-24
2022/07/27 00:08:47;;;;;;;2.65;1.00;;;19.10;90.40;;;;;;5022165;28;20209;-24
2022/07/27 00:11:15;;;;;;;2.72;1.27;;;19.10;90.40;;;;;;5015207;28;20255;-24
2022/07/27 00:13:43;;;;;;;3.25;1.27;;;19.10;90.50;;;;;;5028406;28;20711;-24
2022/07/27 00:16:11;;;;;;;3.28;1.02;;;19.10;90.50;;;;;;5029485;28;20667;-24
2022/07/27 00:18:40;;;;;;;3.17;1.20;;;19.00;90.40;;;;;;5028701;28;20460;-24
2022/07/27 00:21:10;;;;;;;3.40;1.20;;;19.00;90.50;;;;;;5028609;28;20624;-24
2022/07/27 00:23:40;;;;;;;1.98;1.25;;;19.00;90.50;;;;;;5028442;28;20720;-24
2022/07/27 00:26:10;;;;;;;1.88;1.10;;;19.00;90.50;;;;;;5030033;28;20757;-24
2022/07/27 00:28:37;;;;;;;4.70;1.20;;;18.90;90.50;;;;;;5028377;28;20300;-23
2022/07/27 00:31:05;;;;;;;2.75;1.00;;;18.90;90.50;;;;;;5029169;28;20235;-24
2022/07/27 00:33:32;;;;;;;5.22;1.17;;;18.90;90.50;;;;;;5011619;28;20221;-24
2022/07/27 00:36:00;;;;;;;3.72;1.10;;;18.80;90.50;;;;;;5029926;28;20676;-24
2022/07/27 00:38:30;;;;;;;2.60;1.10;;;18.80;90.50;;;;;;5029292;28;20262;-24
2022/07/27 00:41:03;;;;;;;3.08;1.05;;;18.80;90.50;;;;;;5028609;28;20205;-26
2022/07/27 00:43:30;;;;;;;2.42;1.10;;;18.80;90.60;;;;;;5025895;28;20224;-27
2022/07/27 00:45:57;;;;;;;5.38;1.30;;;18.80;90.60;;;;;;5026877;28;20232;-27
2022/07/27 00:48:24;;;;;;;3.35;1.35;;;18.70;90.50;;;;;;5026724;28;20240;-24
2022/07/27 00:50:56;;;;;;;3.88;1.63;;;18.70;90.60;;;;;;5027618;28;20759;-24
2022/07/27 00:53:24;;;;;;;1.85;1.20;;;18.70;90.60;;;;;;5022683;28;20332;-24
2022/07/27 00:55:51;;;;;;;2.25;1.15;;;18.70;90.60;;;;;;5009670;28;20316;-24
2022/07/27 00:58:18;;;;;;;4.07;1.02;;;18.70;90.60;;;;;;5013013;28;20228;-24
2022/07/27 01:00:48;;;;;;;3.75;1.45;;;18.70;90.60;;;;;;5034251;28;20734;-24
2022/07/27 01:03:17;;;;;;;3.72;1.48;;;18.60;90.60;;;;;;5021453;28;20631;-24
2022/07/27 01:05:51;;;;;;;7.18;1.40;;;18.60;90.60;;;;;;5016754;28;20388;-24
2022/07/27 01:08:22;;;;;;;3.28;1.50;;;18.60;90.60;;;;;;5022832;28;20216;-24
2022/07/27 01:10:51;;;;;;;3.45;1.30;;;18.50;90.60;;;;;;5014098;28;20201;-24
2022/07/27 01:13:21;;;;;;;1.80;1.27;;;18.50;90.60;;;;;;5009209;28;20661;-24
2022/07/27 01:15:49;;;;;;;5.80;1.43;;;18.50;90.60;;;;;;5018149;28;20217;-25
2022/07/27 01:18:34;;;;;;;3.60;1.38;;;18.50;90.70;;;;;;5023678;28;20283;-24
2022/07/27 01:21:04;;;;;;;4.77;1.70;;;18.40;90.80;;;;;;5017804;28;20205;-24
2022/07/27 01:23:32;;;;;;;4.65;1.10;;;18.40;90.70;;;;;;5024711;28;20209;-24
2022/07/27 01:26:06;;;;;;;4.83;1.60;;;18.30;90.90;;;;;;5018932;28;20703;-27
2022/07/27 01:28:36;;;;;;;6.97;1.95;;;18.30;90.90;;;;;;5013729;28;20208;-28
2022/07/27 01:31:03;;;;;;;4.60;1.43;;;18.20;90.70;;;;;;5017337;28;20621;-27
2022/07/27 01:33:32;;;;;;;2.57;1.30;;;18.20;90.80;;;;;;5008064;28;20594;-27
2022/07/27 01:36:00;;;;;;;3.75;1.55;;;18.10;90.70;;;;;;5012898;28;20216;-25
2022/07/27 01:38:29;;;;;;;4.03;1.52;;;18.10;90.70;;;;;;5027359;28;20229;-24
2022/07/27 01:40:59;;;;;;;4.45;1.52;;;18.00;90.70;;;;;;5027495;28;20232;-24
2022/07/27 01:43:31;;;;;;;4.00;1.50;;;18.00;90.70;;;;;;5021960;28;20198;-24
2022/07/27 01:46:08;;;;;;;4.28;1.27;;;18.00;90.70;;;;;;5015008;28;20200;-24
2022/07/27 01:48:36;;;;;;;4.05;1.55;;;18.00;90.70;;;;;;5026171;28;20338;-24
2022/07/27 01:51:05;;;;;;;2.63;1.30;;;18.00;90.70;;;;;;5019844;28;20224;-24
2022/07/27 01:53:35;;;;;;;4.05;1.42;;;17.90;90.70;;;;;;5009669;28;20239;-24
2022/07/27 01:56:02;;;;;;;3.30;1.40;;;17.90;90.70;;;;;;5025548;28;20287;-24
2022/07/27 01:58:30;;;;;;;3.20;1.40;;;17.90;90.70;;;;;;5027659;28;20586;-24
2022/07/27 02:00:59;;;;;;;4.38;1.33;;;17.80;90.70;;;;;;5022566;28;20209;-24
2022/07/27 02:03:27;;;;;;;4.68;1.40;;;17.80;90.80;;;;;;5009846;28;20667;-24
2022/07/27 02:05:54;;;;;;;2.35;1.33;;;17.80;91.00;;;;;;5017557;28;20782;-24
2022/07/27 02:08:21;;;;;;;2.70;1.45;;;17.70;90.80;;;;;;5008513;28;20232;-24
2022/07/27 02:13:36;;;;;;;3.35;1.50;;;17.70;90.80;;;;;;5009112;28;20647;-24
2022/07/27 02:16:04;;;;;;;2.58;1.55;;;17.70;90.90;;;;;;5010931;28;20212;-24
2022/07/27 02:18:46;;;;;;;4.07;1.50;;;17.60;90.80;;;;;;5011080;28;20654;-27
2022/07/27 02:21:17;;;;;;;3.87;1.43;;;17.60;90.90;;;;;;5022725;28;20201;-27
2022/07/27 02:23:47;;;;;;;1.40;1.17;;;17.60;90.80;;;;;;5026630;28;20271;-27
2022/07/27 02:26:19;;;;;;;4.32;1.55;;;17.60;90.80;;;;;;5028745;28;20216;-27
2022/07/27 02:28:49;;;;;;;7.50;1.92;;;17.60;90.80;;;;;;5030532;28;20248;-27
2022/07/27 02:31:16;;;;;;;4.32;1.63;;;17.50;90.80;;;;;;5030463;28;20664;-27
2022/07/27 02:33:48;;;;;;;7.13;1.80;;;17.50;90.80;;;;;;5020148;28;20684;-27
2022/07/27 02:36:15;;;;;;;3.38;1.60;;;17.50;90.90;;;;;;5030017;28;20296;-28
2022/07/27 02:38:43;;;;;;;2.22;1.60;;;17.40;90.90;;;;;;5031666;28;20212;-27
2022/07/27 02:41:10;;;;;;;4.87;1.80;;;17.40;90.90;;;;;;5032038;28;20714;-27
2022/07/27 02:43:37;;;;;;;4.17;1.70;;;17.40;90.90;;;;;;5027694;28;20576;-27
2022/07/27 02:46:04;;;;;;;2.28;1.35;;;17.40;90.90;;;;;;5031041;28;20205;-27
2022/07/27 02:48:32;;;;;;;4.55;1.73;;;17.30;90.80;;;;;;5029658;28;20231;-27
2022/07/27 02:51:00;;;;;;;3.13;1.60;;;17.30;90.90;;;;;;5029035;28;20426;-27
2022/07/27 02:53:31;;;;;;;3.07;1.50;;;17.30;90.90;;;;;;5029980;28;20233;-27
2022/07/27 02:55:58;;;;;;;6.80;1.80;;;17.20;90.90;;;;;;5030662;28;20221;-27
2022/07/27 02:58:27;;;;;;;2.77;1.43;;;17.20;90.90;;;;;;5030496;28;20239;-26
2022/07/27 03:00:59;;;;;;;5.38;2.05;;;17.20;91.00;;;;;;5022159;28;20221;-27
2022/07/27 03:03:27;;;;;;;3.60;1.67;;;17.20;91.00;;;;;;5010682;28;20332;-27
2022/07/27 03:06:06;;;;;;;3.85;1.77;;;17.10;91.00;;;;;;5011846;28;20599;-27
2022/07/27 03:08:36;;;;;;;2.75;1.45;;;17.10;91.00;;;;;;5014643;28;20523;-27
2022/07/27 03:11:03;;;;;;;5.05;1.85;;;17.10;91.10;;;;;;5031464;28;20201;-27
2022/07/27 03:13:31;;;;;;;4.50;2.00;;;17.10;91.00;;;;;;5025234;28;20225;-27
2022/07/27 03:15:58;;;;;;;3.50;1.63;;;17.10;91.10;;;;;;5030006;28;20223;-27
2022/07/27 03:18:27;;;;;;;4.05;1.70;;;17.10;91.10;;;;;;5025422;28;20266;-28
2022/07/27 03:20:57;;;;;;;5.57;1.70;;;17.00;91.10;;;;;;5028964;28;20220;-27
2022/07/27 03:23:24;;;;;;;5.63;1.90;;;17.00;91.10;;;;;;5028857;28;20224;-27
2022/07/27 03:25:54;;;;;;;2.90;1.58;;;17.00;91.20;;;;;;5030874;28;20755;-27
2022/07/27 03:28:21;;;;;;;3.97;2.03;;;17.00;91.10;;;;;;5030759;28;20196;-27
2022/07/27 03:30:48;;;;;;;3.90;2.20;;;16.90;91.00;;;;;;5030291;28;20723;-27
2022/07/27 03:33:18;;;;;;;4.85;1.85;;;16.90;91.10;;;;;;5029874;28;20597;-27
2022/07/27 03:35:48;;;;;;;4.20;1.60;;;16.90;91.10;;;;;;5012298;28;20693;-27
2022/07/27 03:38:18;;;;;;;5.00;2.08;;;16.80;91.00;;;;;;5015793;28;20664;-27
2022/07/27 03:40:47;;;;;;;3.13;1.70;;;16.80;91.10;;;;;;5011240;28;20279;-27
2022/07/27 03:43:16;;;;;;;5.37;1.80;;;16.80;91.10;;;;;;5013191;28;20264;-27
2022/07/27 03:45:44;;;;;;;4.63;1.88;;;16.80;91.10;;;;;;5030694;28;20222;-27
2022/07/27 03:48:11;;;;;;;5.00;1.97;;;16.70;91.10;;;;;;5030559;28;20212;-27
2022/07/27 03:50:41;;;;;;;3.70;1.87;;;16.70;91.10;;;;;;5024352;28;20224;-27
2022/07/27 03:53:11;;;;;;;3.53;2.10;;;16.70;91.10;;;;;;5013620;28;20249;-27
2022/07/27 03:55:38;;;;;;;5.33;1.97;;;16.70;91.20;;;;;;5018464;28;20260;-27
2022/07/27 03:58:05;;;;;;;3.30;1.57;;;16.70;91.20;;;;;;5010649;28;20197;-27
2022/07/27 04:00:33;;;;;;;4.33;1.80;;;16.70;91.20;;;;;;5022401;28;20293;-27
2022/07/27 04:03:03;;;;;;;4.63;1.80;;;16.70;91.20;;;;;;5049686;28;20196;-27
2022/07/27 04:05:33;;;;;;;2.43;1.80;;;16.70;91.20;;;;;;5028442;28;20236;-27
2022/07/27 04:08:01;;;;;;;3.50;2.10;;;16.70;91.30;;;;;;5030418;28;20642;-27
2022/07/27 04:10:30;;;;;;;4.23;2.10;;;16.60;91.30;;;;;;5029165;28;20213;-27
2022/07/27 04:12:58;;;;;;;6.10;2.20;;;16.60;91.30;;;;;;5017549;28;20220;-27
2022/07/27 04:15:26;;;;;;;7.07;2.30;;;16.60;91.30;;;;;;5026656;28;20204;-27
2022/07/27 04:17:56;;;;;;;4.13;2.00;;;16.60;91.40;;;;;;5011432;28;20772;-26
2022/07/27 04:20:24;;;;;;;3.50;2.00;;;16.50;91.30;;;;;;5018075;28;20197;-27
2022/07/27 04:22:54;;;;;;;4.15;1.65;;;16.50;91.30;;;;;;5029845;28;20201;-27
2022/07/27 04:25:24;;;;;;;4.57;1.83;;;16.50;91.30;;;;;;5028225;28;20287;-27
2022/07/27 04:27:53;;;;;;;4.28;2.00;;;16.50;91.40;;;;;;5028958;28;20697;-27
2022/07/27 04:30:21;;;;;;;3.88;2.10;;;16.50;91.40;;;;;;5020058;28;20229;-27
2022/07/27 04:32:54;;;;;;;3.33;1.90;;;16.50;91.40;;;;;;5018366;28;20243;-27
2022/07/27 04:35:22;;;;;;;4.70;1.87;;;16.50;91.50;;;;;;5025262;28;20255;-27
2022/07/27 04:37:53;;;;;;;4.80;2.30;;;16.50;91.40;;;;;;5029612;28;20258;-27
2022/07/27 04:40:30;;;;;;;6.88;2.33;;;16.50;91.50;;;;;;5026433;28;20296;-27
2022/07/27 04:43:01;;;;;;;4.97;2.40;;;16.50;91.50;;;;;;5020385;28;20612;-27
2022/07/27 04:45:31;;;;;;;4.03;2.23;;;16.50;91.50;;;;;;5029775;28;20754;-26
2022/07/27 04:48:08;;;;;;;3.10;2.10;;;16.50;91.50;;;;;;5022157;28;20217;-27
2022/07/27 04:50:42;;;;;;;5.35;1.70;;;16.50;91.60;;;;;;5028392;28;20191;-27
2022/07/27 04:53:13;;;;;;;3.60;2.10;;;16.50;91.70;;;;;;5028595;28;20208;-27
2022/07/27 04:55:47;;;;;;;4.07;1.90;;;16.50;91.60;;;;;;5029688;28;20865;-27
2022/07/27 04:58:17;;;;;;;3.70;1.73;;;16.50;91.70;;;;;;5019847;28;20271;-27
2022/07/27 05:00:44;;;;;;;3.80;2.13;;;16.50;91.60;;;;;;5018534;28;20252;-27
2022/07/27 05:03:14;;;;;;;3.60;2.20;;;16.50;91.60;;;;;;5018960;28;20691;-27
2022/07/27 05:05:43;;;;;;;4.23;2.30;;;16.60;91.70;;;;;;5015881;28;20197;-27
2022/07/27 05:08:19;;;;;;;3.83;1.90;;;16.60;91.70;;;;;;5023164;28;20200;-27
2022/07/27 05:10:51;;;;;;;3.07;1.97;;;16.60;91.80;;;;;;5027804;28;20676;-27
2022/07/27 05:13:18;;;;;;;5.53;2.33;;;16.60;91.80;;;;;;5012678;28;20272;-27
2022/07/27 05:15:48;;;;;;;2.90;2.03;;;16.60;91.70;;;;;;5020580;28;20671;-27
2022/07/27 05:18:22;;;;;;;3.00;2.27;;;16.70;91.80;;;;;;5014879;28;20201;-27
2022/07/27 05:20:49;;;;;;;4.93;2.30;;;16.70;91.90;;;;;;5021086;28;20245;-24
2022/07/27 05:23:17;;;;;;;4.43;2.20;;;16.70;91.90;;;;;;5009196;28;20260;-24
2022/07/27 05:25:44;;;;;;;7.15;2.42;;;16.70;92.00;;;;;;5010542;28;20568;-24
2022/07/27 05:28:12;;;;;;;6.22;2.10;;;16.70;91.90;;;;;;5015860;28;20212;-24
2022/07/27 05:30:39;;;;;;;3.45;1.92;;;16.70;91.90;;;;;;5027324;28;20214;-26
2022/07/27 05:33:07;;;;;;;3.10;2.10;;;16.70;91.90;;;;;;5014939;28;20202;-27
2022/07/27 05:35:36;;;;;;;4.47;2.60;;;16.80;92.00;;;;;;5025806;28;20290;-24
2022/07/27 05:38:06;;;;;;;3.85;2.10;;;16.80;92.00;;;;;;5027125;28;20294;-24
2022/07/27 05:40:33;;;;;;;3.70;2.10;;;16.80;92.00;;;;;;5039245;28;20212;-24
2022/07/27 05:43:00;;;;;;;3.33;2.50;;;16.80;92.00;;;;;;5023229;28;20711;-24
2022/07/27 05:45:27;;;;;;;3.13;1.92;;;16.90;92.10;;;;;;5012447;28;20746;-24
2022/07/27 05:47:58;;;;;;;2.70;2.07;;;16.90;92.10;;;;;;5013139;28;20225;-24
2022/07/27 05:50:28;;;;;;;6.07;2.30;;;16.90;92.10;;;;;;5013170;28;20209;-25
2022/07/27 05:52:57;;;;;;;7.83;2.30;;;16.90;92.10;;;;;;5010181;28;20241;-24
2022/07/27 05:55:27;;;;;;;3.60;1.90;;;16.90;92.20;;;;;;5020584;28;20706;-24
2022/07/27 05:57:59;;;;;;;5.55;2.30;;;17.00;92.20;;;;;;5017709;28;20217;-25
2022/07/27 06:00:26;;;;;;;4.00;2.00;;;17.00;92.20;;;;;;5016137;28;20626;-27
2022/07/27 06:02:53;;;;;;;3.38;2.13;;;17.00;92.20;;;;;;5038182;28;20205;-27
2022/07/27 06:05:23;;;;;;;6.90;2.40;;;17.10;92.30;;;;;;5028668;28;20225;-27
2022/07/27 06:08:07;;;;;;;3.97;2.00;;;17.10;92.30;;;;;;5023662;28;20237;-27
2022/07/27 06:10:39;;;;;;;4.47;2.50;;;17.10;92.30;;;;;;5012711;28;20209;-27
2022/07/27 06:13:12;;;;;;;6.17;2.50;;;17.20;92.30;;;;;;5017470;28;20204;-27
2022/07/27 06:15:40;;;;;;;7.65;2.35;;;17.20;92.40;;;;;;5010092;28;20205;-27
2022/07/27 06:18:13;;;;;;;3.83;2.10;;;17.20;92.50;;;;;;5012431;28;20649;-27
2022/07/27 06:20:44;;;;;;;6.00;2.53;;;17.30;92.50;;;;;;5017610;28;20201;-27
2022/07/27 06:23:11;;;;;;;4.27;2.10;;;17.30;92.60;;;;;;5021094;28;20209;-28
2022/07/27 06:25:41;;;;;;;4.30;2.10;;;17.30;92.50;;;;;;5012293;28;20213;-27
2022/07/27 06:28:09;;;;;;;2.83;1.83;;;17.30;92.50;;;;;;5016694;28;20674;-27
2022/07/27 06:30:38;;;;;;;4.43;2.07;;;17.40;92.50;;;;;;5018867;28;20693;-27
2022/07/27 06:33:07;;;;;;;3.97;2.20;;;17.40;92.70;;;;;;5011916;28;20209;-27
2022/07/27 06:35:40;;;;;;;3.83;2.17;;;17.40;92.60;;;;;;5018567;28;20229;-27
2022/07/27 06:38:07;;;;;;;3.60;2.20;;;17.50;92.60;;;;;;5023961;28;20288;-27
2022/07/27 06:40:38;;;;;;;5.10;2.10;;;17.50;92.60;;;;;;5012795;28;20272;-28
2022/07/27 06:43:06;;;;;;;3.17;1.80;;;17.50;92.50;;;;;;5014190;28;20206;-28
2022/07/27 06:45:40;;;;;;;3.45;1.75;;;17.60;92.70;;;;;;5019984;28;20288;-28
2022/07/27 06:48:07;;;;;;;2.90;1.85;;;17.60;92.70;;;;;;5043521;28;20746;-27
2022/07/27 06:50:34;;;;;;;6.40;2.22;;;17.70;92.70;;;;;;5022997;28;20224;-27
2022/07/27 06:53:04;;;;;;;3.85;1.70;;;17.70;92.80;;;;;;5033791;28;20291;-28
2022/07/27 06:55:33;;;;;;;2.72;1.80;;;17.80;92.70;;;;;;5011209;28;20229;-28
2022/07/27 06:58:01;;;;;;;4.15;1.70;;;17.80;92.70;;;;;;5024096;28;20217;-28
2022/07/27 07:00:30;;;;;;;2.08;1.50;;;17.80;92.80;;;;;;5013491;28;20216;-27
2022/07/27 07:03:04;;;;;;;3.47;1.20;;;17.90;92.90;;;;;;5012487;28;20193;-28
2022/07/27 07:05:33;;;;;;;2.65;1.10;;;17.90;92.90;;;;;;5022071;28;20761;-28
2022/07/27 07:08:10;;;;;;;3.97;1.00;;;18.00;92.90;;;;;;5018212;28;20648;-24
2022/07/27 07:10:42;;;;;;;1.65;0.90;;;18.00;93.00;;;;;;5020322;28;20607;-24
2022/07/27 07:13:13;;;;;;;5.20;1.27;;;18.00;93.00;;;;;;5008025;28;20259;-23
2022/07/27 07:15:47;;;;;;;3.17;1.05;;;18.00;93.20;;;;;;5017671;28;20719;-23
2022/07/27 07:18:17;;;;;;;3.13;0.98;;;18.00;93.00;;;;;;5024211;28;20678;-23
2022/07/27 07:20:47;;;;;;;2.88;0.90;;;18.10;93.40;;;;;;5015478;28;20215;-23
2022/07/27 07:23:14;;;;;;;3.72;1.27;;;18.10;93.00;;;;;;5031166;28;20213;-23
2022/07/27 07:25:41;;;;;;;3.47;0.90;;;18.10;93.00;;;;;;5030082;28;20725;-23
2022/07/27 07:28:11;;;;;;;3.25;1.63;;;18.20;93.10;;;;;;5030688;28;20197;-24
2022/07/27 07:30:41;;;;;;;3.70;0.90;;;18.20;93.10;;;;;;5017208;28;20226;-27
2022/07/27 07:33:08;;;;;;;1.17;0.80;;;18.30;93.10;;;;;;5029133;28;20291;-23
2022/07/27 07:35:35;;;;;;;3.28;0.70;;;18.40;93.10;;;;;;5029031;28;20814;-23
2022/07/27 07:38:02;;;;;;;2.63;0.93;;;18.50;93.20;;;;;;5010345;28;20220;-23
2022/07/27 07:40:30;;;;;;;2.17;0.60;;;18.60;93.40;;;;;;5017969;28;20216;-23
2022/07/27 07:43:16;;;;;;;2.95;0.70;;;18.70;93.20;;;;;;5024911;28;20205;-23
2022/07/27 07:45:46;;;;;;;1.33;0.57;;;18.80;93.20;;;;;;5020790;28;20201;-23
2022/07/27 07:48:19;;;;;;;3.45;0.90;;;18.90;93.10;;;;;;5012703;28;20676;-23
2022/07/27 07:50:52;;;;;;;3.45;0.70;;;18.90;93.00;;;;;;5019841;28;20304;-23
2022/07/27 07:53:21;;;;;;;3.50;1.08;;;18.90;93.00;;;;;;5023248;28;20216;-23
2022/07/27 07:55:50;;;;;;;1.95;0.50;;;18.90;93.00;;;;;;5015593;28;20288;-23
2022/07/27 07:58:18;;;;;;;1.23;0.70;;;18.90;93.00;;;;;;5027895;28;20240;-23
2022/07/27 08:00:48;;;;;;;3.08;0.70;;;19.00;93.00;;;;;;5019927;28;20213;-23
2022/07/27 08:03:17;;;;;;;2.33;0.73;;;19.00;92.90;;;;;;5025936;28;20203;-23
2022/07/27 08:05:44;;;;;;;4.60;0.90;;;19.00;92.70;;;;;;5028944;28;20628;-23
2022/07/27 08:08:14;;;;;;;1.75;0.55;;;19.00;92.70;;;;;;5025050;28;20209;-23
2022/07/27 08:10:41;;;;;;;1.17;0.43;;;19.00;92.40;;;;;;5016268;28;20230;-23
2022/07/27 08:13:09;;;;;;;4.90;0.63;;;19.00;92.40;;;;;;5012442;28;20206;-23
2022/07/27 08:15:36;;;;;;;3.25;0.80;;;18.90;92.30;;;;;;5022499;28;20591;-23
2022/07/27 08:18:04;;;;;;;3.67;0.77;;;18.90;92.10;;;;;;5009273;28;20194;-23
2022/07/27 08:20:32;;;;;;;1.77;0.60;;;18.90;92.30;;;;;;5021423;28;20201;-23
2022/07/27 08:23:00;;;;;;;5.25;0.70;;;18.90;92.20;;;;;;5018533;28;20202;-23
2022/07/27 08:25:31;;;;;;;1.95;0.57;;;18.90;92.30;;;;;;5010511;28;20284;-23
2022/07/27 08:28:00;;;;;;;0.52;0.50;;;19.00;92.50;;;;;;5018043;28;20465;-23
2022/07/27 08:30:29;;;;;;;2.97;0.60;;;19.00;92.50;;;;;;5020386;28;20251;-27
2022/07/27 08:33:01;;;;;;;3.22;1.00;;;19.10;92.50;;;;;;5022653;28;20206;-27
2022/07/27 08:35:29;;;;;;;5.20;0.77;;;19.10;92.40;;;;;;5017585;28;20248;-27
2022/07/27 08:37:58;;;;;;;4.25;0.52;;;19.20;92.40;;;;;;5026966;28;20213;-27
2022/07/27 08:40:28;;;;;;;0.93;0.50;;;19.20;92.40;;;;;;5012589;28;21410;-27
2022/07/27 08:43:08;;;;;;;2.38;0.77;;;19.30;92.20;;;;;;5023728;28;20192;-27
2022/07/27 08:45:36;;;;;;;2.90;0.50;;;19.30;92.40;;;;;;5009851;28;20221;-27
2022/07/27 08:48:09;;;;;;;4.68;0.63;;;19.40;92.30;;;;;;5007112;28;20344;-27
2022/07/27 08:50:37;;;;;;;2.65;0.80;;;19.40;92.20;;;;;;5017543;28;20213;-27
2022/07/27 08:53:08;;;;;;;2.42;0.40;;;19.50;92.30;;;;;;5022461;28;20251;-27
2022/07/27 08:55:43;;;;;;;1.27;0.57;;;19.50;92.40;;;;;;5028603;28;20232;-27
2022/07/27 08:58:16;;;;;;;1.23;0.57;;;19.60;92.50;;;;;;5021802;28;20342;-23
2022/07/27 09:00:47;;;;;;;1.08;0.57;;;19.70;92.50;;;;;;5023322;28;20293;-23
2022/07/27 09:03:16;;;;;;;1.80;0.77;;;19.80;92.20;;;;;;5025029;28;20241;-23
2022/07/27 09:05:50;;;;;;;2.63;0.57;;;19.90;92.30;;;;;;5016087;28;20204;-23
2022/07/27 09:08:21;;;;;;;2.47;0.50;;;20.00;92.10;;;;;;5014281;28;20250;-23
2022/07/27 09:10:48;;;;;;;4.97;0.57;;;20.00;92.00;;;;;;4998441;28;20318;-23
2022/07/27 09:13:19;;;;;;;1.55;0.70;;;20.00;92.10;;;;;;5009628;28;20244;-23
2022/07/27 09:15:52;;;;;;;2.00;0.50;;;20.10;92.30;;;;;;5013845;28;20224;-23
2022/07/27 09:18:44;;;;;;;1.60;0.70;;;20.20;92.30;;;;;;5018391;28;20283;-23
2022/07/27 09:21:22;;;;;;;3.55;0.73;;;20.20;92.50;;;;;;5013327;28;20216;-23
2022/07/27 09:24:06;;;;;;;3.45;0.80;;;20.20;92.20;;;;;;5019023;28;20215;-23
2022/07/27 09:26:49;;;;;;;1.10;0.50;;;20.30;92.40;;;;;;5014959;28;20246;-23
2022/07/27 09:29:16;;;;;;;2.42;0.60;;;20.40;92.20;;;;;;5009476;28;20215;-23
2022/07/27 09:31:49;;;;;;;0.85;0.52;;;20.40;92.20;;;;;;5011115;28;20204;-24
2022/07/27 09:34:32;;;;;;;2.15;0.63;;;20.40;92.30;;;;;;5013335;28;20233;-24
2022/07/27 09:37:02;;;;;;;1.27;0.60;;;20.50;91.90;;;;;;5020835;28;20220;-23
2022/07/27 09:39:32;;;;;;;1.85;0.60;;;20.50;91.80;;;;;;5023091;28;20223;-23
2022/07/27 09:42:02;;;;;;;2.67;0.77;;;20.50;91.50;;;;;;5014766;28;20711;-23
2022/07/27 09:44:37;;;;;;;1.33;0.60;;;20.40;91.40;;;;;;5011912;28;20738;-23
2022/07/27 09:47:25;;;;;;;0.50;0.50;;;20.40;91.50;;;;;;5018291;28;20213;-23
2022/07/27 09:50:19;;;;;;;1.42;0.50;;;20.40;91.70;;;;;;5027572;28;20278;-27
2022/07/27 09:52:48;;;;;;;2.05;0.60;;;20.50;91.90;;;;;;5020583;28;20282;-26
2022/07/27 09:55:21;;;;;;;1.10;0.40;;;20.50;92.00;;;;;;5007312;28;20714;-23
2022/07/27 09:57:55;;;;;;;1.40;0.63;;;20.60;91.80;;;;;;5020974;28;20699;-23
2022/07/27 10:00:23;;;;;;;2.08;0.95;;;20.60;91.20;;;;;;5009344;28;20256;-23
2022/07/27 10:02:56;;;;;;;2.00;0.60;;;20.60;91.40;;;;;;5013124;28;20235;-23
2022/07/27 10:05:24;;;;;;;1.65;0.52;;;20.60;91.50;;;;;;5020898;28;20205;-23
2022/07/27 10:07:54;;;;;;;1.33;0.63;;;20.60;91.50;;;;;;5020065;28;20205;-23
2022/07/27 10:10:22;;;;;;;1.33;0.70;;;20.60;91.60;;;;;;5025593;28;20551;-26
2022/07/27 10:12:51;;;;;;;2.60;0.70;;;20.70;91.80;;;;;;5023868;28;20260;-26
2022/07/27 10:15:26;;;;;;;0.85;0.85;;;20.70;91.70;;;;;;5011172;28;20244;-27
2022/07/27 10:18:02;;;;;;;2.05;0.77;;;20.70;91.00;;;;;;5014983;28;21335;-27
2022/07/27 10:20:37;;;;;;;2.72;0.80;;;20.70;91.30;;;;;;5008154;28;20213;-26
2022/07/27 10:23:04;;;;;;;3.47;0.73;;;20.80;91.20;;;;;;5016277;28;20280;-26
2022/07/27 10:25:36;;;;;;;5.30;0.77;;;20.80;90.40;;;;;;5024803;28;20213;-26
2022/07/27 10:28:17;;;;;;;2.45;0.70;;;20.80;91.00;;;;;;5008633;28;20202;-26
2022/07/27 10:30:47;;;;;;;0.88;0.60;;;20.80;90.20;;;;;;5006264;28;20640;-26
2022/07/27 10:33:56;;;;;;;1.42;0.40;;;20.70;89.20;;;;;;5005357;28;20531;-26
2022/07/27 10:36:31;;;;;;;0.57;0.50;;;20.70;88.30;;;;;;5002148;28;20247;-26
2022/07/27 10:39:00;;;;;;;0.93;0.50;;;20.70;90.20;;;;;;5020012;28;20223;-26
2022/07/27 10:41:51;;;;;;;2.47;0.63;;;20.80;90.80;;;;;;5014924;28;20704;-26
2022/07/27 10:44:21;;;;;;;1.13;0.43;;;20.90;90.80;;;;;;5008744;28;20590;-26
2022/07/27 10:46:58;;;;;;;0.52;0.52;;;21.00;90.40;;;;;;5014355;28;20252;-26
2022/07/27 10:49:30;;;;;;;0.70;0.60;;;21.00;90.70;;;;;;5028413;28;20196;-27
2022/07/27 10:51:58;;;;;;;3.13;0.60;;;21.10;90.90;;;;;;5011475;28;20717;-26
2022/07/27 10:54:34;;;;;;;1.80;0.60;;;21.10;90.50;;;;;;5021893;28;20291;-27
2022/07/27 10:57:06;;;;;;;3.30;0.60;;;21.10;90.70;;;;;;5015552;28;20553;-26
2022/07/27 10:59:42;;;;;;;0.77;0.50;;;21.20;90.40;;;;;;5020503;28;20228;-27
2022/07/27 11:02:39;;;;;;;3.40;0.50;;;21.20;90.30;;;;;;5020010;28;20708;-26
2022/07/27 11:05:10;;;;;;;0.80;0.40;;;21.20;90.40;;;;;;5017613;28;20572;-26
2022/07/27 11:08:00;;;;;;;1.42;0.40;;;21.30;90.90;;;;;;5022062;28;20198;-26
2022/07/27 11:10:48;;;;;;;0.90;0.50;;;21.30;90.70;;;;;;5011553;28;20206;-27
2022/07/27 11:13:19;;;;;;;1.52;0.40;;;21.40;91.00;;;;;;5014871;28;20225;-27
2022/07/27 11:15:58;;;;;;;0.82;0.40;;;21.50;91.30;;;;;;5017248;28;20303;-26
2022/07/27 11:19:18;;;;;;;4.32;0.45;;;21.70;91.50;;;;;;5022648;28;20192;-26
2022/07/27 11:21:48;;;;;;;1.10;0.60;;;21.80;91.30;;;;;;5016024;28;20244;-26
2022/07/27 11:24:17;;;;;;;1.02;0.57;;;21.80;91.20;;;;;;5015134;28;20201;-26
2022/07/27 11:26:48;;;;;;;1.52;1.02;;;21.90;91.00;;;;;;5012271;28;20297;-26
2022/07/27 11:29:19;;;;;;;0.90;0.40;;;21.90;91.10;;;;;;5026487;28;20770;-26
2022/07/27 11:31:50;;;;;;;1.98;0.60;;;22.00;91.30;;;;;;5026305;28;20212;-26
2022/07/27 11:34:34;;;;;;;2.85;0.90;;;22.00;91.10;;;;;;5023007;28;20296;-26
2022/07/27 11:37:11;;;;;;;2.47;0.73;;;22.10;91.20;;;;;;5027030;28;20240;-23
2022/07/27 11:39:38;;;;;;;1.35;0.85;;;22.10;90.50;;;;;;5009150;28;20766;-23
2022/07/27 11:42:37;;;;;;;3.05;1.00;;;22.10;90.90;;;;;;5015171;28;20262;-23
2022/07/27 11:45:05;;;;;;;4.88;1.30;;;22.10;90.70;;;;;;5029580;28;21012;-23
2022/07/27 11:47:33;;;;;;;3.55;0.70;;;22.10;90.50;;;;;;5019002;28;20279;-23
2022/07/27 11:50:07;;;;;;;1.67;0.80;;;22.10;90.50;;;;;;5011097;28;20224;-23
2022/07/27 11:52:35;;;;;;;5.03;1.10;;;22.20;90.70;;;;;;5015944;28;20201;-24
2022/07/27 11:55:05;;;;;;;2.13;0.90;;;22.10;90.20;;;;;;5020901;28;20221;-23
2022/07/27 11:57:38;;;;;;;1.55;0.75;;;22.10;90.10;;;;;;5013459;28;20581;-23
2022/07/27 12:00:06;;;;;;;2.67;0.95;;;22.10;90.30;;;;;;5025843;28;20245;-24
2022/07/27 12:02:34;;;;;;;1.73;0.60;;;22.10;90.40;;;;;;5029265;28;20247;-26
2022/07/27 12:05:08;;;;;;;0.93;0.68;;;22.10;90.40;;;;;;5021110;28;20738;-26
2022/07/27 12:07:39;;;;;;;1.55;0.90;;;22.20;90.60;;;;;;5010658;28;20212;-26
2022/07/27 12:10:12;;;;;;;2.50;0.88;;;22.20;90.20;;;;;;5023630;28;20201;-26
2022/07/27 12:12:39;;;;;;;1.23;0.75;;;22.20;90.30;;;;;;5022317;28;20205;-26
2022/07/27 12:15:15;;;;;;;1.08;0.70;;;22.20;90.30;;;;;;5022257;28;20219;-26
2022/07/27 12:18:07;;;;;;;1.02;0.90;;;22.20;90.00;;;;;;5010522;28;20592;-26
2022/07/27 12:20:38;;;;;;;3.17;1.00;;;22.20;90.20;;;;;;5029299;28;20616;-26
2022/07/27 12:23:10;;;;;;;1.15;0.80;;;22.20;90.00;;;;;;5021123;28;20222;-26
2022/07/27 12:25:38;;;;;;;1.55;0.82;;;22.20;89.90;;;;;;5021115;28;20217;-26
2022/07/27 12:28:16;;;;;;;1.67;0.70;;;22.10;90.20;;;;;;5028455;28;20208;-26
2022/07/27 12:30:50;;;;;;;1.63;0.82;;;22.20;90.30;;;;;;5023343;28;20208;-26
2022/07/27 12:33:37;;;;;;;1.98;0.93;;;22.10;90.10;;;;;;5022654;28;20206;-27
2022/07/27 12:36:06;;;;;;;1.63;0.90;;;22.20;90.40;;;;;;5011232;28;20290;-26
2022/07/27 12:38:42;;;;;;;2.92;1.05;;;22.30;90.50;;;;;;5013728;28;20243;-26
2022/07/27 12:41:10;;;;;;;3.85;0.80;;;22.40;90.30;;;;;;5020901;28;20229;-26
2022/07/27 12:43:40;;;;;;;1.90;0.80;;;22.40;90.10;;;;;;5017398;28;20721;-26
2022/07/27 12:46:11;;;;;;;1.38;0.60;;;22.40;90.00;;;;;;5022445;28;20611;-26
2022/07/27 12:48:41;;;;;;;1.27;0.68;;;22.50;90.40;;;;;;5027855;28;20205;-26
2022/07/27 12:51:11;;;;;;;2.40;0.88;;;22.50;90.00;;;;;;5013366;28;20213;-26
2022/07/27 12:53:41;;;;;;;1.92;0.70;;;22.50;90.00;;;;;;5037011;28;20650;-26
2022/07/27 12:56:09;;;;;;;1.17;0.60;;;22.60;90.30;;;;;;5015621;28;20700;-27
2022/07/27 12:58:40;;;;;;;1.75;0.60;;;22.60;90.00;;;;;;5009806;28;20234;-26
2022/07/27 13:01:07;;;;;;;0.90;0.60;;;22.70;90.00;;;;;;5021891;28;20583;-26
2022/07/27 13:03:34;;;;;;;1.45;0.70;;;22.60;89.30;;;;;;5037532;28;20288;-26
2022/07/27 13:06:03;;;;;;;1.25;0.60;;;22.60;89.50;;;;;;5028788;28;20660;-26
2022/07/27 13:08:41;;;;;;;1.27;0.70;;;22.70;90.00;;;;;;5016175;28;20205;-26
2022/07/27 13:11:13;;;;;;;2.38;0.90;;;22.60;88.50;;;;;;5009121;28;20210;-26